Tucson, AZ

4:30 PM MST on December 02, 2016 (GMT -0700)
RAWS | | Change Station

Elev 2264 ft 32.31 °N, 110.82 °W | Updated 1 hour ago

Partly Cloudy
Partly Cloudy
61.0 °F
Feels Like 61.0 °F
N
5.0
Wind Variable Wind from NW
Gusts 12.0 mph

Today
High -- | Low -- °F
--% Chance of Precip.
Yesterday
High -- | Low -- °F
Precip. -- in
Pressure 29.83 in
Visibility 10.0 miles
Clouds Few 10000 ft
Dew Point 20.0 °F
Humidity 20%
Rainfall in
Snow Depth Not available.
7:07 AM 5:17 PM
Waxing Crescent, 11% visible
METAR KDMA 022258Z AUTO 32018G23KT 10SM FEW100 13/M08 A2986 RMK AO2 SLP102 T01261079 $
Pressure 29.83 in
Visibility 10.0 miles
Clouds Few 10000 ft
Dew Point 20.0 °F
Humidity 20%
Rainfall in
Snow Depth Not available.
7:07 AM 5:17 PM
Waxing Crescent, 11% visible
METAR KDMA 022258Z AUTO 32018G23KT 10SM FEW100 13/M08 A2986 RMK AO2 SLP102 T01261079 $

10-Day Weather Forecast

Almanac

Astronomy

Dec. 02, 2016 Rise Set
Actual Time
Civil Twilight
Nautical Twilight
Astronomical Twilight
Moon
Length of Visible Light
Length of Day
Tomorrow will be .
, % of the Moon is Illuminated

Today's Extremes

State Highs State Lows

Community

WunderPhotos

Upload Photos

1,955,378 photos uploaded!

WunderBlog® & News

Nearby

Air Quality

  Air Quality AQ Index Pollutant
Not available.

Snow Depth

Station Depth Elevation

Earthquake Activity

City Distance Mag. Time & Date
Minimum magnitude displayed is 2.5.

Coastal Water Temperatures

Place Temperature

Stations

Nearby Weather Stations

Station Location Temp. Windchill Dew Point Humidity Wind Precip. Elev Updated Type
                   

Watches & Warnings

There are currently no watches in effect.